Newton Field (59B)
Jackman, ME
Field Elevation: 1178
Lat: 45°37.38N  Long: 70°14.56W
CTAF/Unicom Freq: 122.9000
   
    
Weather Advisories
2018-01-21   20:12 Z
Altimeter 30.05" Hg
Wind 300° @ 7 KT
Gusts 16 KT
Visibility 10 SM
Ceiling --
Temperature -4° C (25° F)
Dewpoint -13° C (9° F)
Relative Humidity 50%
Density Altitude --
Condensation Altitude 5,600 feet
Wind Chill: -9° C (16° F)
Wind and Runways
Indicated Runway = 31
Headwind = 7 kt
Crosswind = 1 kt
History
 
 
 
More Info
NOAA Forecast
 
 
About Us
Belfort Instrument
 
 
FAA Disclaimer: The data displayed is for advisory purposes only and is not to be used for flight planning or operations. For official data, please call (not available) to hear the current automated AWOS voice message.
  METAR 59B 212012Z AUTO 30007G16KT 10 SM M04/M13 A3005